sensor_id;sensor_type;location;lat;lon;timestamp;temperature;humidity
7842;DHT22;3966;51.052;13.820;2023-05-23T00:01:05;18.20;99.90
7842;DHT22;3966;51.052;13.820;2023-05-23T00:03:32;18.30;99.90
7842;DHT22;3966;51.052;13.820;2023-05-23T00:05:58;18.30;99.90
7842;DHT22;3966;51.052;13.820;2023-05-23T00:08:24;18.30;99.90
7842;DHT22;3966;51.052;13.820;2023-05-23T00:10:50;18.30;99.90
7842;DHT22;3966;51.052;13.820;2023-05-23T00:13:15;18.30;99.90
7842;DHT22;3966;51.052;13.820;2023-05-23T00:15:42;18.20;99.90
7842;DHT22;3966;51.052;13.820;2023-05-23T00:18:09;18.30;99.90
7842;DHT22;3966;51.052;13.820;2023-05-23T00:20:40;18.30;99.90
7842;DHT22;3966;51.052;13.820;2023-05-23T00:23:06;18.30;99.90
7842;DHT22;3966;51.052;13.820;2023-05-23T00:25:33;18.30;99.90
7842;DHT22;3966;51.052;13.820;2023-05-23T00:28:00;18.40;99.90
7842;DHT22;3966;51.052;13.820;2023-05-23T00:30:27;18.30;99.90
7842;DHT22;3966;51.052;13.820;2023-05-23T00:32:53;18.20;99.90
7842;DHT22;3966;51.052;13.820;2023-05-23T00:35:20;18.30;99.90
7842;DHT22;3966;51.052;13.820;2023-05-23T00:37:46;18.20;99.90
7842;DHT22;3966;51.052;13.820;2023-05-23T00:40:14;18.10;99.90
7842;DHT22;3966;51.052;13.820;2023-05-23T00:42:40;18.10;99.90
7842;DHT22;3966;51.052;13.820;2023-05-23T00:45:06;18.20;99.90
7842;DHT22;3966;51.052;13.820;2023-05-23T00:47:32;18.00;99.90
7842;DHT22;3966;51.052;13.820;2023-05-23T00:49:58;17.90;99.90
7842;DHT22;3966;51.052;13.820;2023-05-23T00:52:24;17.90;99.90
7842;DHT22;3966;51.052;13.820;2023-05-23T00:54:49;17.80;99.90
7842;DHT22;3966;51.052;13.820;2023-05-23T00:57:15;17.50;99.90
7842;DHT22;3966;51.052;13.820;2023-05-23T00:59:41;17.40;99.90
7842;DHT22;3966;51.052;13.820;2023-05-23T01:02:07;17.30;99.90
7842;DHT22;3966;51.052;13.820;2023-05-23T01:04:34;17.20;99.90
7842;DHT22;3966;51.052;13.820;2023-05-23T01:07:00;17.10;99.90
7842;DHT22;3966;51.052;13.820;2023-05-23T01:09:27;17.00;99.90
7842;DHT22;3966;51.052;13.820;2023-05-23T01:18:16;16.70;99.90
7842;DHT22;3966;51.052;13.820;2023-05-23T01:20:27;16.80;99.90
7842;DHT22;3966;51.052;13.820;2023-05-23T01:28:41;16.90;99.90
7842;DHT22;3966;51.052;13.820;2023-05-23T01:31:09;16.90;99.90
7842;DHT22;3966;51.052;13.820;2023-05-23T01:33:37;16.80;99.90
7842;DHT22;3966;51.052;13.820;2023-05-23T01:36:04;16.80;99.90
7842;DHT22;3966;51.052;13.820;2023-05-23T01:38:30;16.80;99.90
7842;DHT22;3966;51.052;13.820;2023-05-23T01:40:56;16.80;99.90
7842;DHT22;3966;51.052;13.820;2023-05-23T01:43:23;16.90;99.90
7842;DHT22;3966;51.052;13.820;2023-05-23T01:45:51;16.90;99.90
7842;DHT22;3966;51.052;13.820;2023-05-23T01:48:18;16.70;99.90
7842;DHT22;3966;51.052;13.820;2023-05-23T01:50:45;16.70;99.90
7842;DHT22;3966;51.052;13.820;2023-05-23T01:53:12;16.60;99.90
7842;DHT22;3966;51.052;13.820;2023-05-23T01:55:40;16.60;99.90
7842;DHT22;3966;51.052;13.820;2023-05-23T01:58:06;16.60;99.90
7842;DHT22;3966;51.052;13.820;2023-05-23T02:00:32;16.50;99.90
7842;DHT22;3966;51.052;13.820;2023-05-23T02:02:58;16.50;99.90
7842;DHT22;3966;51.052;13.820;2023-05-23T02:05:24;16.50;99.90
7842;DHT22;3966;51.052;13.820;2023-05-23T02:07:50;16.50;99.90
7842;DHT22;3966;51.052;13.820;2023-05-23T02:10:15;16.60;99.90
7842;DHT22;3966;51.052;13.820;2023-05-23T02:12:41;16.50;99.90
7842;DHT22;3966;51.052;13.820;2023-05-23T02:15:07;16.40;99.90
7842;DHT22;3966;51.052;13.820;2023-05-23T02:17:33;16.30;99.90
7842;DHT22;3966;51.052;13.820;2023-05-23T02:19:59;16.30;99.90
7842;DHT22;3966;51.052;13.820;2023-05-23T02:22:25;16.30;99.90
7842;DHT22;3966;51.052;13.820;2023-05-23T02:24:51;16.20;99.90
7842;DHT22;3966;51.052;13.820;2023-05-23T02:27:17;16.30;99.90
7842;DHT22;3966;51.052;13.820;2023-05-23T02:29:43;16.30;99.90
7842;DHT22;3966;51.052;13.820;2023-05-23T02:32:08;16.40;99.90
7842;DHT22;3966;51.052;13.820;2023-05-23T02:34:34;16.40;99.90
7842;DHT22;3966;51.052;13.820;2023-05-23T02:37:00;16.40;99.90
7842;DHT22;3966;51.052;13.820;2023-05-23T02:39:26;16.40;99.90
7842;DHT22;3966;51.052;13.820;2023-05-23T02:41:52;16.40;99.90
7842;DHT22;3966;51.052;13.820;2023-05-23T02:44:18;16.40;99.90
7842;DHT22;3966;51.052;13.820;2023-05-23T02:46:45;16.40;99.90
7842;DHT22;3966;51.052;13.820;2023-05-23T02:49:10;16.50;99.90
7842;DHT22;3966;51.052;13.820;2023-05-23T02:51:36;16.50;99.90
7842;DHT22;3966;51.052;13.820;2023-05-23T02:54:02;16.50;99.90
7842;DHT22;3966;51.052;13.820;2023-05-23T02:56:27;16.50;99.90
7842;DHT22;3966;51.052;13.820;2023-05-23T02:58:53;16.50;99.90
7842;DHT22;3966;51.052;13.820;2023-05-23T03:01:19;16.50;99.90
7842;DHT22;3966;51.052;13.820;2023-05-23T03:03:45;16.40;99.90
7842;DHT22;3966;51.052;13.820;2023-05-23T03:06:10;16.50;99.90
7842;DHT22;3966;51.052;13.820;2023-05-23T03:08:39;16.40;99.90
7842;DHT22;3966;51.052;13.820;2023-05-23T03:11:05;16.40;99.90
7842;DHT22;3966;51.052;13.820;2023-05-23T03:13:31;16.40;99.90
7842;DHT22;3966;51.052;13.820;2023-05-23T03:15:57;16.20;99.90
7842;DHT22;3966;51.052;13.820;2023-05-23T03:18:22;16.30;99.90
7842;DHT22;3966;51.052;13.820;2023-05-23T03:20:48;16.40;99.90
7842;DHT22;3966;51.052;13.820;2023-05-23T03:23:14;16.40;99.90
7842;DHT22;3966;51.052;13.820;2023-05-23T03:25:39;16.40;99.90
7842;DHT22;3966;51.052;13.820;2023-05-23T03:28:05;16.40;99.90
7842;DHT22;3966;51.052;13.820;2023-05-23T03:30:30;16.40;99.90
7842;DHT22;3966;51.052;13.820;2023-05-23T03:32:56;16.40;99.90
7842;DHT22;3966;51.052;13.820;2023-05-23T03:35:22;16.30;99.90
7842;DHT22;3966;51.052;13.820;2023-05-23T03:37:47;16.30;99.90
7842;DHT22;3966;51.052;13.820;2023-05-23T03:40:13;16.30;99.90
7842;DHT22;3966;51.052;13.820;2023-05-23T03:42:39;16.20;99.90
7842;DHT22;3966;51.052;13.820;2023-05-23T03:45:05;16.20;99.90
7842;DHT22;3966;51.052;13.820;2023-05-23T03:47:30;16.30;99.90
7842;DHT22;3966;51.052;13.820;2023-05-23T03:49:56;16.30;99.90
7842;DHT22;3966;51.052;13.820;2023-05-23T03:52:22;16.30;99.90
7842;DHT22;3966;51.052;13.820;2023-05-23T03:54:47;16.30;99.90
7842;DHT22;3966;51.052;13.820;2023-05-23T03:57:13;16.30;99.90
7842;DHT22;3966;51.052;13.820;2023-05-23T03:59:39;16.40;99.90
7842;DHT22;3966;51.052;13.820;2023-05-23T04:02:05;16.40;99.90
7842;DHT22;3966;51.052;13.820;2023-05-23T04:04:31;16.30;99.90
7842;DHT22;3966;51.052;13.820;2023-05-23T04:06:57;16.30;99.90
7842;DHT22;3966;51.052;13.820;2023-05-23T04:09:23;16.40;99.90
7842;DHT22;3966;51.052;13.820;2023-05-23T04:11:48;16.40;99.90
7842;DHT22;3966;51.052;13.820;2023-05-23T04:14:14;16.40;99.90
7842;DHT22;3966;51.052;13.820;2023-05-23T04:16:40;16.40;99.90
7842;DHT22;3966;51.052;13.820;2023-05-23T04:19:07;16.40;99.90
7842;DHT22;3966;51.052;13.820;2023-05-23T04:21:33;16.20;99.90
7842;DHT22;3966;51.052;13.820;2023-05-23T04:24:00;16.20;99.90
7842;DHT22;3966;51.052;13.820;2023-05-23T04:26:25;16.20;99.90
7842;DHT22;3966;51.052;13.820;2023-05-23T04:28:51;16.40;99.90
7842;DHT22;3966;51.052;13.820;2023-05-23T04:31:19;16.40;99.90
7842;DHT22;3966;51.052;13.820;2023-05-23T04:33:45;16.40;99.90
7842;DHT22;3966;51.052;13.820;2023-05-23T04:38:41;16.20;99.90
7842;DHT22;3966;51.052;13.820;2023-05-23T04:41:07;16.30;99.90
7842;DHT22;3966;51.052;13.820;2023-05-23T04:43:36;16.40;99.90
7842;DHT22;3966;51.052;13.820;2023-05-23T04:46:10;16.50;99.90
7842;DHT22;3966;51.052;13.820;2023-05-23T04:48:38;16.50;99.90
7842;DHT22;3966;51.052;13.820;2023-05-23T04:51:04;16.50;99.90
7842;DHT22;3966;51.052;13.820;2023-05-23T04:53:33;16.60;99.90
7842;DHT22;3966;51.052;13.820;2023-05-23T04:55:59;16.60;99.90
7842;DHT22;3966;51.052;13.820;2023-05-23T04:58:25;16.70;99.90
7842;DHT22;3966;51.052;13.820;2023-05-23T05:00:50;16.60;99.90
7842;DHT22;3966;51.052;13.820;2023-05-23T05:03:16;16.60;99.90
7842;DHT22;3966;51.052;13.820;2023-05-23T05:05:42;16.70;99.90
7842;DHT22;3966;51.052;13.820;2023-05-23T05:08:07;16.70;99.90
7842;DHT22;3966;51.052;13.820;2023-05-23T05:10:33;16.80;99.90
7842;DHT22;3966;51.052;13.820;2023-05-23T05:12:59;16.70;99.90
7842;DHT22;3966;51.052;13.820;2023-05-23T05:15:24;16.70;99.90
7842;DHT22;3966;51.052;13.820;2023-05-23T05:17:50;16.80;99.90
7842;DHT22;3966;51.052;13.820;2023-05-23T05:20:16;16.80;99.90
7842;DHT22;3966;51.052;13.820;2023-05-23T05:22:41;16.90;99.90
7842;DHT22;3966;51.052;13.820;2023-05-23T05:25:09;16.90;99.90
7842;DHT22;3966;51.052;13.820;2023-05-23T05:27:35;16.90;99.90
7842;DHT22;3966;51.052;13.820;2023-05-23T05:30:08;16.90;99.90
7842;DHT22;3966;51.052;13.820;2023-05-23T05:32:34;17.00;99.90
7842;DHT22;3966;51.052;13.820;2023-05-23T05:35:00;17.10;99.90
7842;DHT22;3966;51.052;13.820;2023-05-23T05:37:26;17.20;99.90
7842;DHT22;3966;51.052;13.820;2023-05-23T05:39:52;17.30;99.90
7842;DHT22;3966;51.052;13.820;2023-05-23T05:42:21;17.40;99.90
7842;DHT22;3966;51.052;13.820;2023-05-23T05:44:48;17.30;99.90
7842;DHT22;3966;51.052;13.820;2023-05-23T05:47:14;17.40;99.90
7842;DHT22;3966;51.052;13.820;2023-05-23T05:49:39;17.50;99.90
7842;DHT22;3966;51.052;13.820;2023-05-23T05:52:06;17.60;99.90
7842;DHT22;3966;51.052;13.820;2023-05-23T05:54:32;17.70;99.90
7842;DHT22;3966;51.052;13.820;2023-05-23T05:56:58;17.60;99.90
7842;DHT22;3966;51.052;13.820;2023-05-23T05:59:24;17.60;99.90
7842;DHT22;3966;51.052;13.820;2023-05-23T06:01:50;17.60;99.90
7842;DHT22;3966;51.052;13.820;2023-05-23T06:04:16;17.60;99.90
7842;DHT22;3966;51.052;13.820;2023-05-23T06:06:42;17.70;99.90
7842;DHT22;3966;51.052;13.820;2023-05-23T06:09:08;17.70;99.90
7842;DHT22;3966;51.052;13.820;2023-05-23T06:11:33;17.70;99.90
7842;DHT22;3966;51.052;13.820;2023-05-23T06:14:02;17.90;99.90
7842;DHT22;3966;51.052;13.820;2023-05-23T06:16:28;17.80;99.90
7842;DHT22;3966;51.052;13.820;2023-05-23T06:18:53;17.80;99.90
7842;DHT22;3966;51.052;13.820;2023-05-23T06:21:19;17.80;99.90
7842;DHT22;3966;51.052;13.820;2023-05-23T06:23:45;18.00;99.90
7842;DHT22;3966;51.052;13.820;2023-05-23T06:26:10;17.90;99.90
7842;DHT22;3966;51.052;13.820;2023-05-23T06:28:37;17.90;99.90
7842;DHT22;3966;51.052;13.820;2023-05-23T06:31:04;18.00;99.90
7842;DHT22;3966;51.052;13.820;2023-05-23T06:33:30;18.10;99.90
7842;DHT22;3966;51.052;13.820;2023-05-23T06:35:55;17.80;99.90
7842;DHT22;3966;51.052;13.820;2023-05-23T06:38:21;17.80;99.90
7842;DHT22;3966;51.052;13.820;2023-05-23T06:40:47;17.70;99.90
7842;DHT22;3966;51.052;13.820;2023-05-23T06:43:13;17.70;99.90
7842;DHT22;3966;51.052;13.820;2023-05-23T06:45:38;17.60;99.90
7842;DHT22;3966;51.052;13.820;2023-05-23T06:48:04;17.60;99.90
7842;DHT22;3966;51.052;13.820;2023-05-23T06:50:30;17.60;99.90
7842;DHT22;3966;51.052;13.820;2023-05-23T06:52:56;17.60;99.90
7842;DHT22;3966;51.052;13.820;2023-05-23T06:55:22;17.60;99.90
7842;DHT22;3966;51.052;13.820;2023-05-23T06:57:48;17.70;99.90
7842;DHT22;3966;51.052;13.820;2023-05-23T07:00:17;17.70;99.90
7842;DHT22;3966;51.052;13.820;2023-05-23T07:02:42;17.80;99.90
7842;DHT22;3966;51.052;13.820;2023-05-23T07:05:10;17.80;99.90
7842;DHT22;3966;51.052;13.820;2023-05-23T07:07:35;17.90;99.90
7842;DHT22;3966;51.052;13.820;2023-05-23T07:10:01;17.90;99.90
7842;DHT22;3966;51.052;13.820;2023-05-23T07:12:27;17.90;99.90
7842;DHT22;3966;51.052;13.820;2023-05-23T07:14:52;18.00;99.90
7842;DHT22;3966;51.052;13.820;2023-05-23T07:17:18;18.10;99.90
7842;DHT22;3966;51.052;13.820;2023-05-23T07:19:44;18.10;99.90
7842;DHT22;3966;51.052;13.820;2023-05-23T07:22:10;18.20;99.90
7842;DHT22;3966;51.052;13.820;2023-05-23T07:24:36;18.40;99.90
7842;DHT22;3966;51.052;13.820;2023-05-23T07:27:02;18.60;99.90
7842;DHT22;3966;51.052;13.820;2023-05-23T07:29:28;18.50;99.90
7842;DHT22;3966;51.052;13.820;2023-05-23T07:31:53;18.50;99.90
7842;DHT22;3966;51.052;13.820;2023-05-23T07:34:19;18.20;99.90
7842;DHT22;3966;51.052;13.820;2023-05-23T07:36:45;18.20;99.90
7842;DHT22;3966;51.052;13.820;2023-05-23T07:39:11;18.20;99.90
7842;DHT22;3966;51.052;13.820;2023-05-23T07:41:37;18.10;99.90
7842;DHT22;3966;51.052;13.820;2023-05-23T07:44:03;18.10;99.90
7842;DHT22;3966;51.052;13.820;2023-05-23T07:46:29;18.20;99.90
7842;DHT22;3966;51.052;13.820;2023-05-23T07:48:55;18.20;99.90
7842;DHT22;3966;51.052;13.820;2023-05-23T07:51:21;18.20;99.90
7842;DHT22;3966;51.052;13.820;2023-05-23T07:53:46;18.30;99.90
7842;DHT22;3966;51.052;13.820;2023-05-23T07:56:12;18.40;99.90
7842;DHT22;3966;51.052;13.820;2023-05-23T07:58:38;18.60;99.90
7842;DHT22;3966;51.052;13.820;2023-05-23T08:01:03;18.50;99.90
7842;DHT22;3966;51.052;13.820;2023-05-23T08:03:29;18.50;99.90
7842;DHT22;3966;51.052;13.820;2023-05-23T08:05:55;18.60;99.90
7842;DHT22;3966;51.052;13.820;2023-05-23T08:08:21;18.70;99.90
7842;DHT22;3966;51.052;13.820;2023-05-23T08:10:47;18.80;99.90
7842;DHT22;3966;51.052;13.820;2023-05-23T08:13:12;18.80;99.90
7842;DHT22;3966;51.052;13.820;2023-05-23T08:15:38;18.90;99.90
7842;DHT22;3966;51.052;13.820;2023-05-23T08:18:04;19.00;99.90
7842;DHT22;3966;51.052;13.820;2023-05-23T08:20:30;19.00;99.90
7842;DHT22;3966;51.052;13.820;2023-05-23T08:22:59;19.00;99.90
7842;DHT22;3966;51.052;13.820;2023-05-23T08:25:26;18.90;99.90
7842;DHT22;3966;51.052;13.820;2023-05-23T08:27:59;18.80;99.90
7842;DHT22;3966;51.052;13.820;2023-05-23T08:30:26;18.90;99.90
7842;DHT22;3966;51.052;13.820;2023-05-23T08:32:52;18.80;99.90
7842;DHT22;3966;51.052;13.820;2023-05-23T08:35:18;19.00;99.90
7842;DHT22;3966;51.052;13.820;2023-05-23T08:37:44;19.00;99.90
7842;DHT22;3966;51.052;13.820;2023-05-23T08:40:19;19.20;99.90
7842;DHT22;3966;51.052;13.820;2023-05-23T08:42:49;19.10;99.90
7842;DHT22;3966;51.052;13.820;2023-05-23T08:45:15;19.20;99.90
7842;DHT22;3966;51.052;13.820;2023-05-23T08:47:42;19.20;99.90
7842;DHT22;3966;51.052;13.820;2023-05-23T08:50:13;19.20;99.90
7842;DHT22;3966;51.052;13.820;2023-05-23T08:52:58;19.40;99.90
7842;DHT22;3966;51.052;13.820;2023-05-23T08:55:27;19.20;99.90
7842;DHT22;3966;51.052;13.820;2023-05-23T08:57:57;19.30;99.90
7842;DHT22;3966;51.052;13.820;2023-05-23T09:00:26;19.30;99.90
7842;DHT22;3966;51.052;13.820;2023-05-23T09:02:52;19.20;99.90
7842;DHT22;3966;51.052;13.820;2023-05-23T09:05:19;19.20;99.90
7842;DHT22;3966;51.052;13.820;2023-05-23T09:07:46;19.10;99.90
7842;DHT22;3966;51.052;13.820;2023-05-23T09:10:16;19.20;99.90
7842;DHT22;3966;51.052;13.820;2023-05-23T09:12:42;19.20;99.90
7842;DHT22;3966;51.052;13.820;2023-05-23T09:15:08;19.30;99.90
7842;DHT22;3966;51.052;13.820;2023-05-23T09:17:35;19.30;99.90
7842;DHT22;3966;51.052;13.820;2023-05-23T09:20:01;19.40;99.90
7842;DHT22;3966;51.052;13.820;2023-05-23T09:22:29;19.50;99.90
7842;DHT22;3966;51.052;13.820;2023-05-23T09:24:55;19.60;99.90
7842;DHT22;3966;51.052;13.820;2023-05-23T09:27:21;19.60;99.90
7842;DHT22;3966;51.052;13.820;2023-05-23T09:29:48;19.60;99.90
7842;DHT22;3966;51.052;13.820;2023-05-23T09:32:15;19.60;99.90
7842;DHT22;3966;51.052;13.820;2023-05-23T09:37:20;19.30;99.90
7842;DHT22;3966;51.052;13.820;2023-05-23T09:39:49;19.20;99.90
7842;DHT22;3966;51.052;13.820;2023-05-23T09:42:20;18.90;99.90
7842;DHT22;3966;51.052;13.820;2023-05-23T09:44:46;18.90;99.90
7842;DHT22;3966;51.052;13.820;2023-05-23T09:47:12;18.90;99.90
7842;DHT22;3966;51.052;13.820;2023-05-23T09:49:38;18.80;99.90
7842;DHT22;3966;51.052;13.820;2023-05-23T09:52:04;18.80;99.90
7842;DHT22;3966;51.052;13.820;2023-05-23T09:54:30;18.80;99.90
7842;DHT22;3966;51.052;13.820;2023-05-23T09:56:58;18.70;99.90
7842;DHT22;3966;51.052;13.820;2023-05-23T09:59:27;18.70;99.90
7842;DHT22;3966;51.052;13.820;2023-05-23T10:01:56;18.70;99.90
7842;DHT22;3966;51.052;13.820;2023-05-23T10:04:22;18.70;99.90
7842;DHT22;3966;51.052;13.820;2023-05-23T10:06:57;18.70;99.90
7842;DHT22;3966;51.052;13.820;2023-05-23T10:09:26;18.40;99.90
7842;DHT22;3966;51.052;13.820;2023-05-23T10:14:28;18.20;99.90
7842;DHT22;3966;51.052;13.820;2023-05-23T10:17:06;18.30;99.90
7842;DHT22;3966;51.052;13.820;2023-05-23T10:19:45;18.30;99.90
7842;DHT22;3966;51.052;13.820;2023-05-23T10:22:13;18.00;99.90
7842;DHT22;3966;51.052;13.820;2023-05-23T10:24:40;18.00;99.90
7842;DHT22;3966;51.052;13.820;2023-05-23T10:27:06;18.00;99.90
7842;DHT22;3966;51.052;13.820;2023-05-23T10:29:33;18.20;99.90
7842;DHT22;3966;51.052;13.820;2023-05-23T10:32:00;18.40;99.90
7842;DHT22;3966;51.052;13.820;2023-05-23T10:39:32;18.60;99.90
7842;DHT22;3966;51.052;13.820;2023-05-23T10:42:02;18.60;99.90
7842;DHT22;3966;51.052;13.820;2023-05-23T10:44:30;19.00;99.90
7842;DHT22;3966;51.052;13.820;2023-05-23T10:47:00;18.80;99.90
7842;DHT22;3966;51.052;13.820;2023-05-23T10:49:50;18.60;99.90
7842;DHT22;3966;51.052;13.820;2023-05-23T10:52:17;18.50;99.90
7842;DHT22;3966;51.052;13.820;2023-05-23T10:54:43;18.60;99.90
7842;DHT22;3966;51.052;13.820;2023-05-23T10:57:10;18.60;99.90
7842;DHT22;3966;51.052;13.820;2023-05-23T10:59:38;18.50;99.90
7842;DHT22;3966;51.052;13.820;2023-05-23T11:02:11;18.40;99.90
7842;DHT22;3966;51.052;13.820;2023-05-23T11:04:37;18.30;99.90
7842;DHT22;3966;51.052;13.820;2023-05-23T11:07:03;18.10;99.90
7842;DHT22;3966;51.052;13.820;2023-05-23T11:09:29;18.00;99.90
7842;DHT22;3966;51.052;13.820;2023-05-23T11:12:04;17.80;99.90
7842;DHT22;3966;51.052;13.820;2023-05-23T11:19:38;18.40;99.90
7842;DHT22;3966;51.052;13.820;2023-05-23T11:22:07;18.40;99.90
7842;DHT22;3966;51.052;13.820;2023-05-23T11:24:50;18.40;99.90
7842;DHT22;3966;51.052;13.820;2023-05-23T11:27:24;18.50;99.90
7842;DHT22;3966;51.052;13.820;2023-05-23T11:29:57;18.60;99.90
7842;DHT22;3966;51.052;13.820;2023-05-23T11:32:27;18.70;99.90
7842;DHT22;3966;51.052;13.820;2023-05-23T11:34:53;18.80;99.90
7842;DHT22;3966;51.052;13.820;2023-05-23T11:37:19;18.80;99.90
7842;DHT22;3966;51.052;13.820;2023-05-23T11:39:45;18.90;99.90
7842;DHT22;3966;51.052;13.820;2023-05-23T11:42:11;18.80;99.90
7842;DHT22;3966;51.052;13.820;2023-05-23T11:44:36;18.80;99.90
7842;DHT22;3966;51.052;13.820;2023-05-23T11:47:04;18.70;99.90
7842;DHT22;3966;51.052;13.820;2023-05-23T11:49:33;18.60;99.90
7842;DHT22;3966;51.052;13.820;2023-05-23T11:52:00;18.60;99.90
7842;DHT22;3966;51.052;13.820;2023-05-23T11:54:26;18.60;99.90
7842;DHT22;3966;51.052;13.820;2023-05-23T11:56:52;18.60;99.90
7842;DHT22;3966;51.052;13.820;2023-05-23T11:59:18;18.60;99.90
7842;DHT22;3966;51.052;13.820;2023-05-23T12:01:45;18.60;99.90
7842;DHT22;3966;51.052;13.820;2023-05-23T12:04:11;18.60;99.90
7842;DHT22;3966;51.052;13.820;2023-05-23T12:06:38;18.60;99.90
7842;DHT22;3966;51.052;13.820;2023-05-23T12:09:05;18.60;99.90
7842;DHT22;3966;51.052;13.820;2023-05-23T12:11:32;18.60;99.90
7842;DHT22;3966;51.052;13.820;2023-05-23T12:13:58;18.60;99.90
7842;DHT22;3966;51.052;13.820;2023-05-23T12:16:27;18.70;99.90
7842;DHT22;3966;51.052;13.820;2023-05-23T12:18:54;19.00;99.90
7842;DHT22;3966;51.052;13.820;2023-05-23T12:21:24;19.10;99.90
7842;DHT22;3966;51.052;13.820;2023-05-23T12:23:50;19.20;99.90
7842;DHT22;3966;51.052;13.820;2023-05-23T12:26:16;19.20;99.90
7842;DHT22;3966;51.052;13.820;2023-05-23T12:28:43;19.20;99.90
7842;DHT22;3966;51.052;13.820;2023-05-23T12:33:39;19.40;99.90
7842;DHT22;3966;51.052;13.820;2023-05-23T12:36:05;19.40;99.90
7842;DHT22;3966;51.052;13.820;2023-05-23T12:38:35;19.50;99.90
7842;DHT22;3966;51.052;13.820;2023-05-23T12:41:31;19.70;99.90
7842;DHT22;3966;51.052;13.820;2023-05-23T12:43:58;19.20;99.90
7842;DHT22;3966;51.052;13.820;2023-05-23T12:46:25;19.10;99.90
7842;DHT22;3966;51.052;13.820;2023-05-23T12:48:51;19.20;99.90
7842;DHT22;3966;51.052;13.820;2023-05-23T12:51:17;19.20;99.90
7842;DHT22;3966;51.052;13.820;2023-05-23T12:53:43;19.20;99.90
7842;DHT22;3966;51.052;13.820;2023-05-23T12:56:10;18.80;99.90
7842;DHT22;3966;51.052;13.820;2023-05-23T12:58:36;18.50;99.90
7842;DHT22;3966;51.052;13.820;2023-05-23T13:01:01;18.40;99.90
7842;DHT22;3966;51.052;13.820;2023-05-23T13:03:28;18.40;99.90
7842;DHT22;3966;51.052;13.820;2023-05-23T13:05:58;18.50;99.90
7842;DHT22;3966;51.052;13.820;2023-05-23T13:08:25;18.50;99.90
7842;DHT22;3966;51.052;13.820;2023-05-23T13:10:52;18.50;99.90
7842;DHT22;3966;51.052;13.820;2023-05-23T13:13:18;18.40;99.90
7842;DHT22;3966;51.052;13.820;2023-05-23T13:15:44;18.00;99.90
7842;DHT22;3966;51.052;13.820;2023-05-23T13:18:10;18.10;99.90
7842;DHT22;3966;51.052;13.820;2023-05-23T13:20:35;18.10;99.90
7842;DHT22;3966;51.052;13.820;2023-05-23T13:23:02;18.00;99.90
7842;DHT22;3966;51.052;13.820;2023-05-23T13:25:28;17.80;99.90
7842;DHT22;3966;51.052;13.820;2023-05-23T13:27:55;17.80;99.90
7842;DHT22;3966;51.052;13.820;2023-05-23T13:30:22;17.80;99.90
7842;DHT22;3966;51.052;13.820;2023-05-23T13:32:48;17.80;99.90
7842;DHT22;3966;51.052;13.820;2023-05-23T13:35:15;17.70;99.90
7842;DHT22;3966;51.052;13.820;2023-05-23T13:37:40;17.70;99.90
7842;DHT22;3966;51.052;13.820;2023-05-23T13:40:06;17.70;99.90
7842;DHT22;3966;51.052;13.820;2023-05-23T13:42:33;17.50;99.90
7842;DHT22;3966;51.052;13.820;2023-05-23T13:45:02;17.50;99.90
7842;DHT22;3966;51.052;13.820;2023-05-23T13:47:29;17.50;99.90
7842;DHT22;3966;51.052;13.820;2023-05-23T13:49:55;17.30;99.90
7842;DHT22;3966;51.052;13.820;2023-05-23T13:52:21;17.20;99.90
7842;DHT22;3966;51.052;13.820;2023-05-23T13:54:46;17.10;99.90
7842;DHT22;3966;51.052;13.820;2023-05-23T13:57:12;17.00;99.90
7842;DHT22;3966;51.052;13.820;2023-05-23T13:59:38;16.90;99.90
7842;DHT22;3966;51.052;13.820;2023-05-23T14:02:04;17.00;99.90
7842;DHT22;3966;51.052;13.820;2023-05-23T14:04:31;17.10;99.90
7842;DHT22;3966;51.052;13.820;2023-05-23T14:06:56;17.10;99.90
7842;DHT22;3966;51.052;13.820;2023-05-23T14:09:22;17.00;99.90
7842;DHT22;3966;51.052;13.820;2023-05-23T14:11:48;17.00;99.90
7842;DHT22;3966;51.052;13.820;2023-05-23T14:14:15;16.80;99.90
7842;DHT22;3966;51.052;13.820;2023-05-23T14:16:41;16.80;99.90
7842;DHT22;3966;51.052;13.820;2023-05-23T14:19:07;16.90;99.90
7842;DHT22;3966;51.052;13.820;2023-05-23T14:21:33;17.00;99.90
7842;DHT22;3966;51.052;13.820;2023-05-23T14:23:58;17.10;99.90
7842;DHT22;3966;51.052;13.820;2023-05-23T14:26:24;17.10;99.90
7842;DHT22;3966;51.052;13.820;2023-05-23T14:28:50;17.30;99.90
7842;DHT22;3966;51.052;13.820;2023-05-23T14:31:15;17.40;99.90
7842;DHT22;3966;51.052;13.820;2023-05-23T14:33:41;17.40;99.90
7842;DHT22;3966;51.052;13.820;2023-05-23T14:36:07;17.40;99.90
7842;DHT22;3966;51.052;13.820;2023-05-23T14:38:33;17.40;99.90
7842;DHT22;3966;51.052;13.820;2023-05-23T14:40:58;17.20;99.90
7842;DHT22;3966;51.052;13.820;2023-05-23T14:43:24;17.20;99.90
7842;DHT22;3966;51.052;13.820;2023-05-23T14:45:50;17.10;99.90
7842;DHT22;3966;51.052;13.820;2023-05-23T14:48:16;17.10;99.90
7842;DHT22;3966;51.052;13.820;2023-05-23T14:50:41;17.00;99.90
7842;DHT22;3966;51.052;13.820;2023-05-23T14:53:07;17.00;99.90
7842;DHT22;3966;51.052;13.820;2023-05-23T14:55:33;16.80;99.90
7842;DHT22;3966;51.052;13.820;2023-05-23T14:57:58;16.70;99.90
7842;DHT22;3966;51.052;13.820;2023-05-23T15:00:24;16.80;99.90
7842;DHT22;3966;51.052;13.820;2023-05-23T15:02:50;16.70;99.90
7842;DHT22;3966;51.052;13.820;2023-05-23T15:05:16;16.60;99.90
7842;DHT22;3966;51.052;13.820;2023-05-23T15:07:42;16.50;99.90
7842;DHT22;3966;51.052;13.820;2023-05-23T15:10:09;16.60;99.90
7842;DHT22;3966;51.052;13.820;2023-05-23T15:12:35;16.60;99.90
7842;DHT22;3966;51.052;13.820;2023-05-23T15:15:01;16.60;99.90
7842;DHT22;3966;51.052;13.820;2023-05-23T15:17:30;16.60;99.90
7842;DHT22;3966;51.052;13.820;2023-05-23T15:19:56;16.50;99.90
7842;DHT22;3966;51.052;13.820;2023-05-23T15:22:22;16.50;99.90
7842;DHT22;3966;51.052;13.820;2023-05-23T15:24:48;16.50;99.90
7842;DHT22;3966;51.052;13.820;2023-05-23T15:27:13;16.50;99.90
7842;DHT22;3966;51.052;13.820;2023-05-23T15:29:39;16.50;99.90
7842;DHT22;3966;51.052;13.820;2023-05-23T15:32:06;16.50;99.90
7842;DHT22;3966;51.052;13.820;2023-05-23T15:34:31;16.40;99.90
7842;DHT22;3966;51.052;13.820;2023-05-23T15:36:57;16.40;99.90
7842;DHT22;3966;51.052;13.820;2023-05-23T15:39:25;16.40;99.90
7842;DHT22;3966;51.052;13.820;2023-05-23T15:41:51;16.40;99.90
7842;DHT22;3966;51.052;13.820;2023-05-23T15:44:17;16.30;99.90
7842;DHT22;3966;51.052;13.820;2023-05-23T15:46:46;16.20;99.90
7842;DHT22;3966;51.052;13.820;2023-05-23T15:49:12;16.30;99.90
7842;DHT22;3966;51.052;13.820;2023-05-23T15:51:37;16.30;99.90
7842;DHT22;3966;51.052;13.820;2023-05-23T15:54:03;16.20;99.90
7842;DHT22;3966;51.052;13.820;2023-05-23T15:56:29;16.20;99.90
7842;DHT22;3966;51.052;13.820;2023-05-23T15:58:55;16.10;99.90
7842;DHT22;3966;51.052;13.820;2023-05-23T16:01:21;16.00;99.90
7842;DHT22;3966;51.052;13.820;2023-05-23T16:03:47;16.00;99.90
7842;DHT22;3966;51.052;13.820;2023-05-23T16:06:13;15.90;99.90
7842;DHT22;3966;51.052;13.820;2023-05-23T16:08:38;15.80;99.90
7842;DHT22;3966;51.052;13.820;2023-05-23T16:11:04;16.10;99.90
7842;DHT22;3966;51.052;13.820;2023-05-23T16:13:30;16.30;99.90